sensor_id;sensor_type;location;lat;lon;timestamp;pressure;altitude;pressure_sealevel;temperature;humidity
6030;BME280;3043;42.682;23.376;2022-08-07T00:00:43;94696.84;;;24.36;100.00
6030;BME280;3043;42.682;23.376;2022-08-07T00:03:09;94700.91;;;24.40;100.00
6030;BME280;3043;42.682;23.376;2022-08-07T00:05:35;94706.44;;;24.37;100.00
6030;BME280;3043;42.682;23.376;2022-08-07T00:08:02;94696.84;;;24.36;100.00
6030;BME280;3043;42.682;23.376;2022-08-07T00:10:29;94701.53;;;24.32;100.00
6030;BME280;3043;42.682;23.376;2022-08-07T00:12:56;94705.41;;;24.28;100.00
6030;BME280;3043;42.682;23.376;2022-08-07T00:15:22;94704.81;;;24.25;100.00
6030;BME280;3043;42.682;23.376;2022-08-07T00:17:49;94702.88;;;24.27;100.00
6030;BME280;3043;42.682;23.376;2022-08-07T00:20:15;94692.94;;;24.19;100.00
6030;BME280;3043;42.682;23.376;2022-08-07T00:22:40;94691.03;;;24.10;100.00
6030;BME280;3043;42.682;23.376;2022-08-07T00:25:07;94704.91;;;24.03;100.00
6030;BME280;3043;42.682;23.376;2022-08-07T00:27:33;94698.88;;;23.90;100.00
6030;BME280;3043;42.682;23.376;2022-08-07T00:29:59;94703.59;;;23.86;100.00
6030;BME280;3043;42.682;23.376;2022-08-07T00:32:24;94706.78;;;23.90;100.00
6030;BME280;3043;42.682;23.376;2022-08-07T00:34:50;94699.38;;;23.84;100.00
6030;BME280;3043;42.682;23.376;2022-08-07T00:37:16;94698.88;;;23.90;100.00
6030;BME280;3043;42.682;23.376;2022-08-07T00:39:42;94707.53;;;23.92;100.00
6030;BME280;3043;42.682;23.376;2022-08-07T00:42:08;94704.41;;;23.98;100.00
6030;BME280;3043;42.682;23.376;2022-08-07T00:44:34;94713.78;;;23.91;100.00
6030;BME280;3043;42.682;23.376;2022-08-07T00:47:04;94700.69;;;23.89;100.00
6030;BME280;3043;42.682;23.376;2022-08-07T00:49:30;94700.81;;;23.88;100.00
6030;BME280;3043;42.682;23.376;2022-08-07T00:51:56;94703.69;;;23.96;100.00
6030;BME280;3043;42.682;23.376;2022-08-07T00:54:21;94711.00;;;24.03;100.00
6030;BME280;3043;42.682;23.376;2022-08-07T00:56:48;94707.06;;;23.98;100.00
6030;BME280;3043;42.682;23.376;2022-08-07T00:59:13;94707.53;;;23.92;100.00
6030;BME280;3043;42.682;23.376;2022-08-07T01:01:40;94706.09;;;23.88;100.00
6030;BME280;3043;42.682;23.376;2022-08-07T01:04:06;94697.94;;;23.80;100.00
6030;BME280;3043;42.682;23.376;2022-08-07T01:06:32;94703.72;;;23.74;100.00
6030;BME280;3043;42.682;23.376;2022-08-07T01:08:58;94710.47;;;23.56;100.00
6030;BME280;3043;42.682;23.376;2022-08-07T01:11:25;94705.06;;;23.57;100.00
6030;BME280;3043;42.682;23.376;2022-08-07T01:13:50;94707.84;;;23.45;100.00
6030;BME280;3043;42.682;23.376;2022-08-07T01:16:16;94725.34;;;23.57;100.00
6030;BME280;3043;42.682;23.376;2022-08-07T01:18:42;94723.19;;;23.51;100.00
6030;BME280;3043;42.682;23.376;2022-08-07T01:21:10;94721.88;;;23.56;100.00
6030;BME280;3043;42.682;23.376;2022-08-07T01:23:40;94723.69;;;23.45;100.00
6030;BME280;3043;42.682;23.376;2022-08-07T01:26:10;94719.72;;;23.61;100.00
6030;BME280;3043;42.682;23.376;2022-08-07T01:28:36;94713.59;;;23.50;100.00
6030;BME280;3043;42.682;23.376;2022-08-07T01:31:02;94717.22;;;23.38;100.00
6030;BME280;3043;42.682;23.376;2022-08-07T01:33:28;94714.56;;;23.27;100.00
6030;BME280;3043;42.682;23.376;2022-08-07T01:35:56;94721.47;;;23.06;100.00
6030;BME280;3043;42.682;23.376;2022-08-07T01:38:22;94721.47;;;23.06;100.00
6030;BME280;3043;42.682;23.376;2022-08-07T01:40:48;94722.19;;;22.97;100.00
6030;BME280;3043;42.682;23.376;2022-08-07T01:43:14;94718.38;;;23.12;100.00
6030;BME280;3043;42.682;23.376;2022-08-07T01:45:41;94728.94;;;23.12;100.00
6030;BME280;3043;42.682;23.376;2022-08-07T01:48:07;94748.69;;;23.06;100.00
6030;BME280;3043;42.682;23.376;2022-08-07T01:50:36;94752.22;;;23.18;100.00
6030;BME280;3043;42.682;23.376;2022-08-07T01:53:02;94763.13;;;23.13;100.00
6030;BME280;3043;42.682;23.376;2022-08-07T01:55:33;94795.91;;;23.22;100.00
6030;BME280;3043;42.682;23.376;2022-08-07T01:58:01;94797.47;;;23.13;100.00
6030;BME280;3043;42.682;23.376;2022-08-07T02:00:30;94796.00;;;22.98;100.00
6030;BME280;3043;42.682;23.376;2022-08-07T02:03:02;94795.13;;;22.98;100.00
6030;BME280;3043;42.682;23.376;2022-08-07T02:05:34;94803.97;;;22.86;100.00
6030;BME280;3043;42.682;23.376;2022-08-07T02:08:05;94799.78;;;22.83;100.00
6030;BME280;3043;42.682;23.376;2022-08-07T02:10:32;94817.91;;;22.88;100.00
6030;BME280;3043;42.682;23.376;2022-08-07T02:13:00;94811.72;;;23.00;100.00
6030;BME280;3043;42.682;23.376;2022-08-07T02:15:28;94814.59;;;23.08;100.00
6030;BME280;3043;42.682;23.376;2022-08-07T02:17:55;94807.88;;;23.04;100.00
6030;BME280;3043;42.682;23.376;2022-08-07T02:20:22;94815.22;;;22.76;100.00
6030;BME280;3043;42.682;23.376;2022-08-07T02:22:49;94812.53;;;22.65;100.00
6030;BME280;3043;42.682;23.376;2022-08-07T02:25:19;94804.56;;;22.54;100.00
6030;BME280;3043;42.682;23.376;2022-08-07T02:27:47;94794.63;;;22.58;100.00
6030;BME280;3043;42.682;23.376;2022-08-07T02:30:14;94778.28;;;22.53;100.00
6030;BME280;3043;42.682;23.376;2022-08-07T02:32:40;94776.53;;;22.41;100.00
6030;BME280;3043;42.682;23.376;2022-08-07T02:35:07;94776.28;;;22.56;100.00
6030;BME280;3043;42.682;23.376;2022-08-07T02:37:35;94767.69;;;22.65;100.00
6030;BME280;3043;42.682;23.376;2022-08-07T02:40:04;94748.63;;;22.62;100.00
6030;BME280;3043;42.682;23.376;2022-08-07T02:42:31;94734.97;;;22.44;100.00
6030;BME280;3043;42.682;23.376;2022-08-07T02:44:58;94734.09;;;22.44;100.00
6030;BME280;3043;42.682;23.376;2022-08-07T02:47:25;94736.38;;;22.37;100.00
6030;BME280;3043;42.682;23.376;2022-08-07T02:49:51;94744.00;;;22.29;100.00
6030;BME280;3043;42.682;23.376;2022-08-07T02:52:36;94729.09;;;22.17;100.00
6030;BME280;3043;42.682;23.376;2022-08-07T02:55:07;94727.88;;;22.10;100.00
6030;BME280;3043;42.682;23.376;2022-08-07T02:57:35;94741.06;;;22.10;100.00
6030;BME280;3043;42.682;23.376;2022-08-07T03:00:04;94741.16;;;22.09;100.00
6030;BME280;3043;42.682;23.376;2022-08-07T03:02:29;94732.19;;;22.11;100.00
6030;BME280;3043;42.682;23.376;2022-08-07T03:04:57;94729.44;;;22.13;100.00
6030;BME280;3043;42.682;23.376;2022-08-07T03:07:25;94729.09;;;22.17;100.00
6030;BME280;3043;42.682;23.376;2022-08-07T03:09:51;94735.56;;;22.13;100.00
6030;BME280;3043;42.682;23.376;2022-08-07T03:12:17;94721.19;;;22.17;100.00
6030;BME280;3043;42.682;23.376;2022-08-07T03:14:43;94726.78;;;22.36;100.00
6030;BME280;3043;42.682;23.376;2022-08-07T03:17:09;94728.25;;;22.40;100.00
6030;BME280;3043;42.682;23.376;2022-08-07T03:19:35;94726.63;;;22.50;100.00
6030;BME280;3043;42.682;23.376;2022-08-07T03:22:03;94729.53;;;22.58;100.00
6030;BME280;3043;42.682;23.376;2022-08-07T03:24:29;94734.34;;;22.64;100.00
6030;BME280;3043;42.682;23.376;2022-08-07T03:26:59;94728.47;;;22.37;100.00
6030;BME280;3043;42.682;23.376;2022-08-07T03:29:34;94728.25;;;22.40;100.00
6030;BME280;3043;42.682;23.376;2022-08-07T03:32:05;94730.13;;;22.51;100.00
6030;BME280;3043;42.682;23.376;2022-08-07T03:34:32;94736.59;;;22.58;100.00
6030;BME280;3043;42.682;23.376;2022-08-07T03:37:01;94724.53;;;22.66;100.00
6030;BME280;3043;42.682;23.376;2022-08-07T03:39:30;94736.31;;;22.85;100.00
6030;BME280;3043;42.682;23.376;2022-08-07T03:41:57;94732.50;;;22.89;100.00
6030;BME280;3043;42.682;23.376;2022-08-07T03:44:23;94731.53;;;23.01;100.00
6030;BME280;3043;42.682;23.376;2022-08-07T03:46:49;94725.84;;;23.40;100.00
6030;BME280;3043;42.682;23.376;2022-08-07T03:49:15;94738.56;;;23.57;100.00
6030;BME280;3043;42.682;23.376;2022-08-07T03:51:41;94743.84;;;23.79;100.00
6030;BME280;3043;42.682;23.376;2022-08-07T03:54:07;94745.19;;;23.95;100.00
6030;BME280;3043;42.682;23.376;2022-08-07T03:56:33;94749.91;;;24.23;100.00
6030;BME280;3043;42.682;23.376;2022-08-07T03:59:02;94747.97;;;24.57;100.00
6030;BME280;3043;42.682;23.376;2022-08-07T04:01:28;94747.31;;;24.96;100.00
6030;BME280;3043;42.682;23.376;2022-08-07T04:03:55;94753.53;;;25.47;100.00
6030;BME280;3043;42.682;23.376;2022-08-07T04:06:21;94757.16;;;25.76;100.00
6030;BME280;3043;42.682;23.376;2022-08-07T04:08:46;94753.66;;;26.16;100.00
6030;BME280;3043;42.682;23.376;2022-08-07T04:11:12;94766.44;;;26.50;100.00
6030;BME280;3043;42.682;23.376;2022-08-07T04:13:38;94769.69;;;26.92;100.00
6030;BME280;3043;42.682;23.376;2022-08-07T04:16:04;94768.13;;;27.27;100.00
6030;BME280;3043;42.682;23.376;2022-08-07T04:18:30;94774.03;;;27.77;100.00
6030;BME280;3043;42.682;23.376;2022-08-07T04:20:55;94772.19;;;28.14;100.00
6030;BME280;3043;42.682;23.376;2022-08-07T04:23:21;94763.50;;;28.66;100.00
6030;BME280;3043;42.682;23.376;2022-08-07T04:25:47;94771.25;;;29.12;100.00
6030;BME280;3043;42.682;23.376;2022-08-07T04:28:13;94776.97;;;29.61;100.00
6030;BME280;3043;42.682;23.376;2022-08-07T04:30:39;94778.28;;;30.16;100.00
6030;BME280;3043;42.682;23.376;2022-08-07T04:33:08;94787.38;;;30.72;100.00
6030;BME280;3043;42.682;23.376;2022-08-07T04:35:35;94784.63;;;31.06;100.00
6030;BME280;3043;42.682;23.376;2022-08-07T04:38:08;94796.81;;;31.17;100.00
6030;BME280;3043;42.682;23.376;2022-08-07T04:40:38;94792.97;;;31.11;100.00
6030;BME280;3043;42.682;23.376;2022-08-07T04:43:04;94801.00;;;31.03;100.00
6030;BME280;3043;42.682;23.376;2022-08-07T04:46:02;94798.59;;;30.76;100.00
6030;BME280;3043;42.682;23.376;2022-08-07T04:49:05;94800.53;;;30.58;100.00
6030;BME280;3043;42.682;23.376;2022-08-07T04:51:52;94795.63;;;31.03;100.00
6030;BME280;3043;42.682;23.376;2022-08-07T04:54:29;94800.34;;;31.73;100.00
6030;BME280;3043;42.682;23.376;2022-08-07T04:59:54;94811.41;;;31.54;100.00
6030;BME280;3043;42.682;23.376;2022-08-07T05:02:27;94809.75;;;31.61;100.00
6030;BME280;3043;42.682;23.376;2022-08-07T05:05:13;94813.69;;;31.81;99.85
6030;BME280;3043;42.682;23.376;2022-08-07T05:10:34;94820.41;;;32.95;93.20
6030;BME280;3043;42.682;23.376;2022-08-07T05:13:20;94830.09;;;33.71;83.19
6030;BME280;3043;42.682;23.376;2022-08-07T05:15:50;94826.09;;;34.56;74.43
6030;BME280;3043;42.682;23.376;2022-08-07T05:18:22;94835.41;;;34.75;72.08
6030;BME280;3043;42.682;23.376;2022-08-07T05:20:52;94830.78;;;34.83;69.03
6030;BME280;3043;42.682;23.376;2022-08-07T05:23:39;94830.34;;;34.94;68.92
6030;BME280;3043;42.682;23.376;2022-08-07T05:26:10;94835.16;;;35.34;67.12
6030;BME280;3043;42.682;23.376;2022-08-07T05:28:37;94834.66;;;35.66;63.95
6030;BME280;3043;42.682;23.376;2022-08-07T05:31:04;94836.19;;;35.75;62.69
6030;BME280;3043;42.682;23.376;2022-08-07T05:33:33;94838.72;;;36.60;57.52
6030;BME280;3043;42.682;23.376;2022-08-07T05:36:00;94843.31;;;36.32;57.36
6030;BME280;3043;42.682;23.376;2022-08-07T05:38:26;94837.41;;;36.22;60.43
6030;BME280;3043;42.682;23.376;2022-08-07T05:40:53;94849.22;;;37.23;53.65
6030;BME280;3043;42.682;23.376;2022-08-07T05:43:18;94858.50;;;37.74;49.27
6030;BME280;3043;42.682;23.376;2022-08-07T05:45:46;94855.00;;;37.20;50.50
6030;BME280;3043;42.682;23.376;2022-08-07T05:48:12;94859.66;;;37.39;49.31
6030;BME280;3043;42.682;23.376;2022-08-07T05:50:39;94864.25;;;37.38;49.10
6030;BME280;3043;42.682;23.376;2022-08-07T05:53:05;94873.91;;;37.20;48.94
6030;BME280;3043;42.682;23.376;2022-08-07T05:55:32;94867.88;;;37.11;50.99
6030;BME280;3043;42.682;23.376;2022-08-07T05:57:59;94866.78;;;37.06;50.75
6030;BME280;3043;42.682;23.376;2022-08-07T06:00:26;94870.28;;;37.47;49.53
6030;BME280;3043;42.682;23.376;2022-08-07T06:02:53;94878.34;;;38.27;49.06
6030;BME280;3043;42.682;23.376;2022-08-07T06:05:22;94885.28;;;39.19;44.96
6030;BME280;3043;42.682;23.376;2022-08-07T06:07:51;94890.97;;;39.49;43.33
6030;BME280;3043;42.682;23.376;2022-08-07T06:10:17;94888.44;;;39.98;42.82
6030;BME280;3043;42.682;23.376;2022-08-07T06:12:42;94892.34;;;40.02;41.50
6030;BME280;3043;42.682;23.376;2022-08-07T06:15:12;94891.34;;;39.65;41.27
6030;BME280;3043;42.682;23.376;2022-08-07T06:17:38;94894.78;;;39.79;40.12
6030;BME280;3043;42.682;23.376;2022-08-07T06:20:06;94896.13;;;39.63;39.96
6030;BME280;3043;42.682;23.376;2022-08-07T06:22:33;94901.34;;;40.33;38.63
6030;BME280;3043;42.682;23.376;2022-08-07T06:24:59;94893.84;;;40.78;38.90
6030;BME280;3043;42.682;23.376;2022-08-07T06:27:24;94891.00;;;40.91;38.91
6030;BME280;3043;42.682;23.376;2022-08-07T06:29:51;94886.47;;;40.85;38.05
6030;BME280;3043;42.682;23.376;2022-08-07T06:32:16;94888.59;;;40.34;39.10
6030;BME280;3043;42.682;23.376;2022-08-07T06:34:42;94893.84;;;40.53;38.79
6030;BME280;3043;42.682;23.376;2022-08-07T06:37:07;94888.34;;;40.11;38.53
6030;BME280;3043;42.682;23.376;2022-08-07T06:39:33;94889.88;;;39.63;37.85
6030;BME280;3043;42.682;23.376;2022-08-07T06:42:07;94882.97;;;39.23;40.50
6030;BME280;3043;42.682;23.376;2022-08-07T06:44:35;94883.94;;;38.12;41.83
6030;BME280;3043;42.682;23.376;2022-08-07T06:47:01;94882.66;;;37.82;41.92
6030;BME280;3043;42.682;23.376;2022-08-07T06:49:27;94880.63;;;38.23;43.58
6030;BME280;3043;42.682;23.376;2022-08-07T06:51:54;94882.34;;;39.21;41.62
6030;BME280;3043;42.682;23.376;2022-08-07T06:54:22;94879.63;;;39.21;41.27
6030;BME280;3043;42.682;23.376;2022-08-07T06:56:49;94885.19;;;39.76;39.51
6030;BME280;3043;42.682;23.376;2022-08-07T06:59:37;94890.69;;;40.01;37.22
6030;BME280;3043;42.682;23.376;2022-08-07T07:02:06;94897.38;;;41.21;34.41
6030;BME280;3043;42.682;23.376;2022-08-07T07:04:32;94890.25;;;39.73;36.63
6030;BME280;3043;42.682;23.376;2022-08-07T07:06:58;94891.81;;;40.18;34.86
6030;BME280;3043;42.682;23.376;2022-08-07T07:09:26;94887.44;;;39.55;37.14
6030;BME280;3043;42.682;23.376;2022-08-07T07:18:04;94883.25;;;38.82;37.53
6030;BME280;3043;42.682;23.376;2022-08-07T07:20:50;94884.53;;;38.79;39.41
6030;BME280;3043;42.682;23.376;2022-08-07T07:23:16;94889.81;;;39.76;36.96
6030;BME280;3043;42.682;23.376;2022-08-07T07:25:43;94890.13;;;40.48;34.63
6030;BME280;3043;42.682;23.376;2022-08-07T07:30:47;94880.22;;;38.59;35.92
6030;BME280;3043;42.682;23.376;2022-08-07T07:33:15;94881.44;;;38.04;36.43
6030;BME280;3043;42.682;23.376;2022-08-07T07:35:43;94871.72;;;37.43;36.69
6030;BME280;3043;42.682;23.376;2022-08-07T07:38:12;94879.91;;;36.20;39.77
6030;BME280;3043;42.682;23.376;2022-08-07T07:40:39;94888.00;;;36.20;40.13
6030;BME280;3043;42.682;23.376;2022-08-07T07:43:05;94876.69;;;35.67;41.62
6030;BME280;3043;42.682;23.376;2022-08-07T07:45:32;94882.84;;;35.61;41.49
6030;BME280;3043;42.682;23.376;2022-08-07T07:47:58;94884.91;;;35.24;43.31
6030;BME280;3043;42.682;23.376;2022-08-07T07:50:26;94867.81;;;35.88;40.92
6030;BME280;3043;42.682;23.376;2022-08-07T07:52:52;94888.78;;;35.71;40.81
6030;BME280;3043;42.682;23.376;2022-08-07T07:55:19;94891.59;;;35.63;40.77
6030;BME280;3043;42.682;23.376;2022-08-07T07:57:49;94895.38;;;35.69;41.09
6030;BME280;3043;42.682;23.376;2022-08-07T08:00:16;94891.22;;;35.88;40.95
6030;BME280;3043;42.682;23.376;2022-08-07T08:02:44;94897.69;;;35.93;40.47
6030;BME280;3043;42.682;23.376;2022-08-07T08:05:12;94903.69;;;36.10;40.60
6030;BME280;3043;42.682;23.376;2022-08-07T08:07:41;94892.03;;;36.30;39.75
6030;BME280;3043;42.682;23.376;2022-08-07T08:10:08;94914.69;;;36.36;39.38
6030;BME280;3043;42.682;23.376;2022-08-07T08:12:35;94913.03;;;35.93;40.32
6030;BME280;3043;42.682;23.376;2022-08-07T08:15:01;94904.47;;;35.32;41.89
6030;BME280;3043;42.682;23.376;2022-08-07T08:17:27;94905.91;;;35.14;43.75
6030;BME280;3043;42.682;23.376;2022-08-07T08:20:00;94908.38;;;35.44;42.50
6030;BME280;3043;42.682;23.376;2022-08-07T08:22:27;94904.38;;;35.40;43.04
6030;BME280;3043;42.682;23.376;2022-08-07T08:25:12;94897.50;;;36.16;40.91
6030;BME280;3043;42.682;23.376;2022-08-07T08:27:57;94892.75;;;35.97;41.66
6030;BME280;3043;42.682;23.376;2022-08-07T08:30:25;94890.53;;;36.49;39.92
6030;BME280;3043;42.682;23.376;2022-08-07T08:32:53;94891.31;;;37.11;39.20
6030;BME280;3043;42.682;23.376;2022-08-07T08:35:22;94893.47;;;36.88;38.62
6030;BME280;3043;42.682;23.376;2022-08-07T08:37:57;94891.78;;;37.21;37.77
6030;BME280;3043;42.682;23.376;2022-08-07T08:40:35;94896.03;;;36.96;37.73
6030;BME280;3043;42.682;23.376;2022-08-07T08:43:09;94903.94;;;36.70;38.52
6030;BME280;3043;42.682;23.376;2022-08-07T08:45:43;94906.34;;;35.88;40.92
6030;BME280;3043;42.682;23.376;2022-08-07T08:51:18;94905.50;;;36.58;38.41
6030;BME280;3043;42.682;23.376;2022-08-07T08:54:07;94902.38;;;35.63;41.58
6030;BME280;3043;42.682;23.376;2022-08-07T08:56:37;94893.13;;;35.51;42.30
6030;BME280;3043;42.682;23.376;2022-08-07T09:10:28;94893.56;;;35.19;44.73
6030;BME280;3043;42.682;23.376;2022-08-07T09:16:07;94885.94;;;35.58;44.42
6030;BME280;3043;42.682;23.376;2022-08-07T09:29:21;94878.88;;;36.48;38.87
6030;BME280;3043;42.682;23.376;2022-08-07T09:37:36;94863.34;;;34.74;39.99
6030;BME280;3043;42.682;23.376;2022-08-07T09:48:53;94856.91;;;34.16;43.80
6030;BME280;3043;42.682;23.376;2022-08-07T09:52:03;94854.47;;;34.44;43.86
6030;BME280;3043;42.682;23.376;2022-08-07T10:00:12;94847.47;;;34.64;43.15
6030;BME280;3043;42.682;23.376;2022-08-07T10:08:14;94834.50;;;34.68;40.19
6030;BME280;3043;42.682;23.376;2022-08-07T10:25:06;94819.16;;;32.75;47.75
6030;BME280;3043;42.682;23.376;2022-08-07T10:28:02;94820.03;;;32.20;47.96
6030;BME280;3043;42.682;23.376;2022-08-07T10:30:40;94823.09;;;31.93;54.45
6030;BME280;3043;42.682;23.376;2022-08-07T10:33:26;94810.69;;;32.08;51.84
6030;BME280;3043;42.682;23.376;2022-08-07T10:39:02;94839.00;;;31.31;52.54
6030;BME280;3043;42.682;23.376;2022-08-07T10:41:35;94826.44;;;31.63;51.00
6030;BME280;3043;42.682;23.376;2022-08-07T10:44:26;94843.66;;;31.77;52.40
6030;BME280;3043;42.682;23.376;2022-08-07T10:47:02;94844.78;;;32.22;49.99
6030;BME280;3043;42.682;23.376;2022-08-07T10:49:43;94839.75;;;32.35;48.64
6030;BME280;3043;42.682;23.376;2022-08-07T10:52:34;94833.78;;;32.09;48.75
6030;BME280;3043;42.682;23.376;2022-08-07T10:55:25;94834.28;;;31.97;50.08
6030;BME280;3043;42.682;23.376;2022-08-07T11:00:48;94829.22;;;31.05;52.43
6030;BME280;3043;42.682;23.376;2022-08-07T11:04:02;94833.59;;;30.65;57.17
6030;BME280;3043;42.682;23.376;2022-08-07T11:06:44;94818.16;;;30.84;60.83
6030;BME280;3043;42.682;23.376;2022-08-07T11:09:18;94818.16;;;30.84;59.08
6030;BME280;3043;42.682;23.376;2022-08-07T11:14:22;94835.66;;;30.37;65.91
6030;BME280;3043;42.682;23.376;2022-08-07T11:16:55;94820.16;;;30.41;67.54
6030;BME280;3043;42.682;23.376;2022-08-07T11:22:25;94833.56;;;30.49;73.80
6030;BME280;3043;42.682;23.376;2022-08-07T11:27:53;94824.38;;;31.01;72.97
6030;BME280;3043;42.682;23.376;2022-08-07T11:30:25;94830.69;;;30.92;75.17
6030;BME280;3043;42.682;23.376;2022-08-07T11:33:01;94820.09;;;30.66;70.66
6030;BME280;3043;42.682;23.376;2022-08-07T11:35:36;94804.13;;;30.41;71.28
6030;BME280;3043;42.682;23.376;2022-08-07T11:40:57;94831.22;;;29.87;79.39
6030;BME280;3043;42.682;23.376;2022-08-07T11:43:31;94831.31;;;29.77;83.55
6030;BME280;3043;42.682;23.376;2022-08-07T11:46:10;94827.81;;;29.59;86.25
6030;BME280;3043;42.682;23.376;2022-08-07T11:51:50;94837.06;;;29.29;89.41
6030;BME280;3043;42.682;23.376;2022-08-07T11:54:50;94833.47;;;29.38;89.51
6030;BME280;3043;42.682;23.376;2022-08-07T11:57:32;94825.94;;;29.52;86.48
6030;BME280;3043;42.682;23.376;2022-08-07T12:00:07;94835.41;;;29.28;89.72
6030;BME280;3043;42.682;23.376;2022-08-07T12:08:28;94827.22;;;29.48;91.71
6030;BME280;3043;42.682;23.376;2022-08-07T12:10:58;94844.31;;;29.19;92.57
6030;BME280;3043;42.682;23.376;2022-08-07T12:13:49;94832.97;;;29.17;90.14
6030;BME280;3043;42.682;23.376;2022-08-07T12:16:14;94829.25;;;29.54;91.07
6030;BME280;3043;42.682;23.376;2022-08-07T12:21:23;94832.75;;;29.72;92.85
6030;BME280;3043;42.682;23.376;2022-08-07T12:23:56;94831.13;;;29.61;93.91
6030;BME280;3043;42.682;23.376;2022-08-07T12:26:43;94824.72;;;29.64;96.60
6030;BME280;3043;42.682;23.376;2022-08-07T12:29:37;94824.69;;;30.15;95.77
6030;BME280;3043;42.682;23.376;2022-08-07T12:32:19;94823.84;;;30.48;86.81
6030;BME280;3043;42.682;23.376;2022-08-07T12:34:46;94809.31;;;30.42;85.54
6030;BME280;3043;42.682;23.376;2022-08-07T12:37:14;94804.81;;;30.43;84.04
6030;BME280;3043;42.682;23.376;2022-08-07T12:39:44;94801.75;;;30.30;81.98
6030;BME280;3043;42.682;23.376;2022-08-07T12:42:11;94808.25;;;30.27;78.81
6030;BME280;3043;42.682;23.376;2022-08-07T12:44:44;94807.28;;;30.36;80.02
6030;BME280;3043;42.682;23.376;2022-08-07T12:50:35;94800.22;;;29.94;82.77
6030;BME280;3043;42.682;23.376;2022-08-07T12:58:17;94790.50;;;29.85;85.00
6030;BME280;3043;42.682;23.376;2022-08-07T13:01:05;94790.56;;;30.01;82.73
6030;BME280;3043;42.682;23.376;2022-08-07T13:03:51;94791.44;;;29.76;87.40
6030;BME280;3043;42.682;23.376;2022-08-07T13:13:00;94792.28;;;29.15;89.12
6030;BME280;3043;42.682;23.376;2022-08-07T13:20:43;94776.97;;;29.17;87.93
6030;BME280;3043;42.682;23.376;2022-08-07T13:25:41;94756.34;;;29.45;79.75
6030;BME280;3043;42.682;23.376;2022-08-07T13:28:17;94770.06;;;29.50;80.23
6030;BME280;3043;42.682;23.376;2022-08-07T13:30:51;94756.44;;;29.61;80.01
6030;BME280;3043;42.682;23.376;2022-08-07T13:33:23;94761.28;;;29.58;83.44
6030;BME280;3043;42.682;23.376;2022-08-07T13:35:58;94771.84;;;29.93;80.22
6030;BME280;3043;42.682;23.376;2022-08-07T13:41:38;94771.50;;;30.21;78.23
6030;BME280;3043;42.682;23.376;2022-08-07T13:44:06;94774.34;;;30.20;79.31
6030;BME280;3043;42.682;23.376;2022-08-07T13:46:38;94765.31;;;30.21;77.78
6030;BME280;3043;42.682;23.376;2022-08-07T13:49:06;94763.25;;;30.48;76.81
6030;BME280;3043;42.682;23.376;2022-08-07T13:51:35;94752.38;;;30.42;76.63
6030;BME280;3043;42.682;23.376;2022-08-07T13:54:12;94784.50;;;30.58;76.14
6030;BME280;3043;42.682;23.376;2022-08-07T13:56:39;94778.72;;;30.29;77.51
6030;BME280;3043;42.682;23.376;2022-08-07T13:59:11;94781.75;;;30.08;78.36
6030;BME280;3043;42.682;23.376;2022-08-07T14:01:55;94768.88;;;30.04;76.61
6030;BME280;3043;42.682;23.376;2022-08-07T14:04:24;94769.66;;;29.88;74.46
6030;BME280;3043;42.682;23.376;2022-08-07T14:06:51;94785.03;;;29.69;74.54
6030;BME280;3043;42.682;23.376;2022-08-07T14:09:24;94775.50;;;29.40;78.75
6030;BME280;3043;42.682;23.376;2022-08-07T14:11:55;94783.41;;;29.32;79.30
6030;BME280;3043;42.682;23.376;2022-08-07T14:14:27;94790.06;;;29.11;87.67
6030;BME280;3043;42.682;23.376;2022-08-07T14:16:58;94796.09;;;28.95;88.29
6030;BME280;3043;42.682;23.376;2022-08-07T14:20:02;94790.19;;;28.57;89.28
6030;BME280;3043;42.682;23.376;2022-08-07T14:22:31;94793.59;;;28.49;87.07
6030;BME280;3043;42.682;23.376;2022-08-07T14:25:09;94795.97;;;28.43;86.90
6030;BME280;3043;42.682;23.376;2022-08-07T14:27:38;94803.09;;;28.52;86.88
6030;BME280;3043;42.682;23.376;2022-08-07T14:30:09;94799.78;;;28.40;88.91
6030;BME280;3043;42.682;23.376;2022-08-07T14:32:41;94794.78;;;28.37;93.93
6030;BME280;3043;42.682;23.376;2022-08-07T14:35:14;94790.16;;;28.39;95.75
6030;BME280;3043;42.682;23.376;2022-08-07T14:37:42;94789.44;;;28.47;97.28
6030;BME280;3043;42.682;23.376;2022-08-07T14:40:13;94789.88;;;28.60;98.67
6030;BME280;3043;42.682;23.376;2022-08-07T14:42:40;94784.09;;;28.64;98.84
6030;BME280;3043;42.682;23.376;2022-08-07T14:45:07;94787.97;;;28.52;99.63
6030;BME280;3043;42.682;23.376;2022-08-07T14:47:36;94791.34;;;28.54;100.00
6030;BME280;3043;42.682;23.376;2022-08-07T14:50:06;94781.28;;;28.48;100.00
6030;BME280;3043;42.682;23.376;2022-08-07T14:52:35;94795.06;;;28.61;100.00
6030;BME280;3043;42.682;23.376;2022-08-07T14:55:03;94785.91;;;28.64;100.00
6030;BME280;3043;42.682;23.376;2022-08-07T14:57:31;94786.47;;;28.67;100.00
6030;BME280;3043;42.682;23.376;2022-08-07T14:59:58;94774.44;;;28.63;100.00
6030;BME280;3043;42.682;23.376;2022-08-07T15:02:25;94773.00;;;28.69;100.00
6030;BME280;3043;42.682;23.376;2022-08-07T15:04:51;94777.19;;;28.71;98.97
6030;BME280;3043;42.682;23.376;2022-08-07T15:07:19;94783.59;;;28.78;97.61
6030;BME280;3043;42.682;23.376;2022-08-07T15:09:49;94774.00;;;28.85;100.00
6030;BME280;3043;42.682;23.376;2022-08-07T15:12:18;94774.28;;;28.82;100.00
6030;BME280;3043;42.682;23.376;2022-08-07T15:14:52;94783.44;;;28.97;98.49
6030;BME280;3043;42.682;23.376;2022-08-07T15:17:27;94777.59;;;28.94;96.41
6030;BME280;3043;42.682;23.376;2022-08-07T15:19:59;94779.47;;;29.01;94.53
6030;BME280;3043;42.682;23.376;2022-08-07T15:22:29;94775.53;;;29.05;95.27
6030;BME280;3043;42.682;23.376;2022-08-07T15:24:56;94773.47;;;28.82;98.44
6030;BME280;3043;42.682;23.376;2022-08-07T15:27:24;94771.63;;;29.00;95.44
6030;BME280;3043;42.682;23.376;2022-08-07T15:29:52;94774.94;;;29.11;94.96
6030;BME280;3043;42.682;23.376;2022-08-07T15:32:20;94774.16;;;29.01;95.77
6030;BME280;3043;42.682;23.376;2022-08-07T15:34:50;94779.63;;;28.82;96.41
6030;BME280;3043;42.682;23.376;2022-08-07T15:37:21;94773.25;;;28.75;97.50
6030;BME280;3043;42.682;23.376;2022-08-07T15:39:52;94779.94;;;28.79;99.12
6030;BME280;3043;42.682;23.376;2022-08-07T15:45:05;94778.56;;;28.75;100.00